Time;durP1;ratioP1;P1;durP2;ratioP2;P2;SDS_P1;SDS_P2;PMS_P1;PMS_P2;Temp;Humidity;BMP_temperature;BMP_pressure;BME280_temperature;BME280_humidity;BME280_pressure;Samples;Min_cycle;Max_cycle;Signal;HPM_P1;HPM_P2
2022/06/17 00:00:54;;;;;;;8.27;6.13;;;13.70;99.90;;;;;;4837199;29;20091;-78
2022/06/17 00:03:21;;;;;;;7.18;5.95;;;13.70;99.90;;;;;;4848807;29;20048;-79
2022/06/17 00:05:47;;;;;;;7.70;6.37;;;13.80;99.90;;;;;;4854456;29;20036;-79
2022/06/17 00:08:18;;;;;;;7.60;6.67;;;13.70;99.90;;;;;;4851986;29;20780;-78
2022/06/17 00:10:44;;;;;;;9.68;7.18;;;13.70;99.90;;;;;;4838062;29;20502;-79
2022/06/17 00:13:16;;;;;;;9.20;6.67;;;13.60;99.90;;;;;;4835041;29;20116;-79
2022/06/17 00:15:45;;;;;;;10.77;6.45;;;13.60;99.90;;;;;;4831390;29;20527;-79
2022/06/17 00:18:11;;;;;;;9.13;6.90;;;13.60;99.90;;;;;;4846774;29;20052;-79
2022/06/17 00:20:37;;;;;;;9.07;6.72;;;13.60;99.90;;;;;;4848235;29;20041;-79
2022/06/17 00:23:05;;;;;;;8.80;7.40;;;13.60;99.90;;;;;;4840752;29;20063;-78
2022/06/17 00:25:35;;;;;;;8.20;6.97;;;13.50;99.90;;;;;;4858061;29;20419;-78
2022/06/17 00:28:02;;;;;;;10.50;6.60;;;13.60;99.90;;;;;;4864806;29;20048;-78
2022/06/17 00:30:32;;;;;;;9.73;6.77;;;13.50;99.90;;;;;;4854427;29;20101;-78
2022/06/17 00:33:01;;;;;;;10.53;7.87;;;13.50;99.90;;;;;;4841632;29;20047;-78
2022/06/17 00:35:34;;;;;;;12.73;9.20;;;13.50;99.90;;;;;;4851317;29;20415;-78
2022/06/17 00:38:01;;;;;;;10.23;8.77;;;13.50;99.90;;;;;;4853425;29;20076;-78
2022/06/17 00:40:29;;;;;;;11.50;7.77;;;13.50;99.90;;;;;;4852604;29;20124;-78
2022/06/17 00:42:56;;;;;;;9.60;7.87;;;13.50;99.90;;;;;;4840020;29;20038;-78
2022/06/17 00:45:33;;;;;;;11.87;8.40;;;13.40;99.90;;;;;;4845403;29;20124;-79
2022/06/17 00:48:06;;;;;;;13.27;8.97;;;13.40;99.90;;;;;;4846155;29;20057;-79
2022/06/17 00:51:02;;;;;;;9.67;8.00;;;13.30;99.90;;;;;;4847930;29;20054;-78
2022/06/17 00:53:59;;;;;;;8.97;7.90;;;13.30;99.90;;;;;;4848220;29;20041;-79
2022/06/17 00:56:35;;;;;;;10.10;7.97;;;13.30;99.90;;;;;;4834702;29;20552;-79
2022/06/17 00:59:15;;;;;;;10.13;7.73;;;13.30;99.90;;;;;;4853318;29;20128;-78
2022/06/17 01:02:00;;;;;;;10.90;8.73;;;13.30;99.90;;;;;;4850905;29;20064;-78
2022/06/17 01:04:32;;;;;;;11.77;8.60;;;13.30;99.90;;;;;;4866774;29;20091;-79
2022/06/17 01:07:22;;;;;;;10.90;8.50;;;13.20;99.90;;;;;;4860014;29;20080;-79
2022/06/17 01:09:57;;;;;;;11.63;9.07;;;13.20;99.90;;;;;;4852564;29;20057;-78
2022/06/17 01:12:27;;;;;;;12.43;9.30;;;13.20;99.90;;;;;;4852011;29;20592;-79
2022/06/17 01:14:54;;;;;;;13.43;10.17;;;13.30;99.90;;;;;;4836642;29;20056;-78
2022/06/17 01:17:22;;;;;;;9.93;8.93;;;13.30;99.90;;;;;;4853311;29;20049;-79
2022/06/17 01:19:51;;;;;;;11.63;8.73;;;13.30;99.90;;;;;;4853946;29;20565;-78
2022/06/17 01:22:25;;;;;;;12.60;8.30;;;13.30;99.90;;;;;;4865845;29;20041;-78
2022/06/17 01:25:00;;;;;;;12.23;8.87;;;13.30;99.90;;;;;;4839295;29;20633;-78
2022/06/17 01:27:29;;;;;;;11.77;9.23;;;13.40;99.90;;;;;;4838683;29;20041;-79
2022/06/17 01:29:55;;;;;;;12.87;10.13;;;13.30;99.90;;;;;;4839341;29;20034;-79
2022/06/17 01:32:27;;;;;;;10.83;9.67;;;13.30;99.90;;;;;;4837811;29;20045;-79
2022/06/17 01:34:53;;;;;;;10.53;8.80;;;13.30;99.90;;;;;;4834125;29;20046;-79
2022/06/17 01:37:19;;;;;;;12.83;9.90;;;13.30;99.90;;;;;;4827132;29;20057;-78
2022/06/17 01:39:46;;;;;;;13.93;9.60;;;13.20;99.90;;;;;;4820280;29;20042;-79
2022/06/17 01:42:12;;;;;;;11.03;9.83;;;13.30;99.90;;;;;;4821752;29;20046;-78
2022/06/17 01:44:40;;;;;;;13.90;10.37;;;13.20;99.90;;;;;;4817931;29;20072;-78
2022/06/17 01:47:20;;;;;;;11.53;9.73;;;13.20;99.90;;;;;;4840896;29;20050;-78
2022/06/17 01:49:50;;;;;;;12.20;10.23;;;13.20;99.90;;;;;;4834705;29;20046;-78
2022/06/17 01:52:47;;;;;;;18.17;11.07;;;13.20;99.90;;;;;;4814223;29;20588;-78
2022/06/17 01:55:22;;;;;;;14.33;11.00;;;13.20;99.90;;;;;;4817478;29;20053;-78
2022/06/17 01:58:17;;;;;;;15.60;11.13;;;13.10;99.90;;;;;;4821458;29;20527;-78
2022/06/17 02:00:43;;;;;;;15.50;11.30;;;13.10;99.90;;;;;;4824867;29;20162;-78
2022/06/17 02:03:14;;;;;;;15.97;11.57;;;13.10;99.90;;;;;;4835983;29;20038;-78
2022/06/17 02:05:45;;;;;;;15.33;11.37;;;13.10;99.90;;;;;;4819910;29;20141;-78
2022/06/17 02:08:10;;;;;;;16.80;10.93;;;13.10;99.90;;;;;;4834721;29;20046;-78
2022/06/17 02:10:42;;;;;;;15.63;12.00;;;13.00;99.90;;;;;;4826142;29;20145;-78
2022/06/17 02:13:10;;;;;;;18.23;11.48;;;13.10;99.90;;;;;;4836630;29;20129;-78
2022/06/17 02:15:36;;;;;;;15.70;11.80;;;13.00;99.90;;;;;;4832066;29;20038;-78
2022/06/17 02:18:07;;;;;;;13.60;11.53;;;13.10;99.90;;;;;;4819037;29;20064;-78
2022/06/17 02:20:33;;;;;;;14.43;11.37;;;13.10;99.90;;;;;;4827842;29;20046;-78
2022/06/17 02:23:00;;;;;;;14.43;10.97;;;13.10;99.90;;;;;;4840351;29;20079;-79
2022/06/17 02:25:36;;;;;;;15.50;11.63;;;13.10;99.90;;;;;;4858888;29;20449;-78
2022/06/17 02:28:03;;;;;;;14.00;10.50;;;13.10;99.90;;;;;;4837465;29;20049;-78
2022/06/17 02:30:30;;;;;;;12.33;9.77;;;13.10;99.90;;;;;;4851616;29;20052;-79
2022/06/17 02:33:03;;;;;;;13.50;9.97;;;13.10;99.90;;;;;;4846078;29;20403;-78
2022/06/17 02:35:53;;;;;;;11.57;10.20;;;13.10;99.90;;;;;;4849897;29;20144;-79
2022/06/17 02:38:25;;;;;;;13.00;10.90;;;13.10;99.90;;;;;;4835798;29;20049;-79
2022/06/17 02:41:06;;;;;;;11.63;10.18;;;13.10;99.90;;;;;;4838847;29;20141;-79
2022/06/17 02:43:37;;;;;;;15.30;10.47;;;13.20;99.90;;;;;;4836415;29;20384;-79
2022/06/17 02:46:18;;;;;;;;;;;13.20;99.90;;;;;;4852790;29;20582;-78
2022/06/17 02:49:06;;;;;;;10.37;8.87;;;13.10;99.90;;;;;;4852144;29;19989;-78
2022/06/17 02:51:36;;;;;;;12.47;9.13;;;13.10;99.90;;;;;;4847561;29;20045;-78
2022/06/17 02:54:04;;;;;;;12.33;9.47;;;13.10;99.90;;;;;;4859314;29;20053;-79
2022/06/17 02:56:32;;;;;;;14.03;9.93;;;13.00;99.90;;;;;;4853975;29;20245;-79
2022/06/17 02:59:05;;;;;;;12.13;8.93;;;13.00;99.90;;;;;;4845673;29;20029;-78
2022/06/17 03:01:36;;;;;;;16.87;10.00;;;13.00;99.90;;;;;;4853159;29;20048;-78
2022/06/17 03:04:12;;;;;;;12.87;9.53;;;13.00;99.90;;;;;;4838666;29;20056;-78
2022/06/17 03:06:40;;;;;;;11.70;9.40;;;13.00;99.90;;;;;;4858759;29;20463;-78
2022/06/17 03:09:24;;;;;;;12.47;8.70;;;13.00;99.90;;;;;;4833699;29;20050;-78
2022/06/17 03:12:17;;;;;;;12.83;9.47;;;13.00;99.90;;;;;;4836106;29;20124;-78
2022/06/17 03:15:07;;;;;;;13.57;9.10;;;13.00;99.90;;;;;;4851829;29;20479;-79
2022/06/17 03:17:38;;;;;;;13.33;9.13;;;12.90;99.90;;;;;;4851404;29;20582;-78
2022/06/17 03:20:07;;;;;;;12.68;9.13;;;12.90;99.90;;;;;;4851917;29;20371;-78
2022/06/17 03:22:35;;;;;;;11.67;8.80;;;12.90;99.90;;;;;;4833771;29;20531;-78
2022/06/17 03:25:06;;;;;;;11.13;8.57;;;12.90;99.90;;;;;;4837989;29;20057;-78
2022/06/17 03:27:47;;;;;;;12.32;9.02;;;12.90;99.90;;;;;;4826901;29;20045;-79
2022/06/17 03:30:28;;;;;;;12.23;8.90;;;12.90;99.90;;;;;;4828907;29;20060;-79
2022/06/17 03:33:08;;;;;;;12.40;8.82;;;12.90;99.90;;;;;;4827190;29;20391;-79
2022/06/17 03:35:37;;;;;;;11.80;8.27;;;12.90;99.90;;;;;;4839438;29;20116;-79
2022/06/17 03:38:32;;;;;;;8.53;7.67;;;13.00;99.90;;;;;;4836432;29;20167;-79
2022/06/17 03:41:12;;;;;;;10.40;8.00;;;13.10;99.90;;;;;;4832509;29;20045;-78
2022/06/17 03:43:44;;;;;;;10.73;8.40;;;13.10;99.90;;;;;;4832838;29;20408;-78
2022/06/17 03:46:10;;;;;;;9.00;6.90;;;13.20;99.90;;;;;;4836970;29;20053;-78
2022/06/17 03:48:46;;;;;;;9.00;7.03;;;13.30;99.90;;;;;;4832825;29;20404;-78
2022/06/17 03:51:18;;;;;;;10.07;7.97;;;13.40;99.90;;;;;;4834345;29;20041;-79
2022/06/17 03:53:45;;;;;;;9.73;7.20;;;13.50;99.90;;;;;;4818591;29;20121;-79
2022/06/17 03:56:27;;;;;;;8.13;6.27;;;13.60;99.90;;;;;;4833096;29;20042;-79
2022/06/17 03:58:56;;;;;;;10.48;7.63;;;13.70;99.90;;;;;;4848861;29;20036;-79
2022/06/17 04:01:32;;;;;;;8.53;6.67;;;13.80;99.90;;;;;;4839186;29;20046;-78
2022/06/17 04:04:02;;;;;;;8.73;6.83;;;13.90;99.90;;;;;;4836583;29;20053;-78
2022/06/17 04:06:33;;;;;;;8.47;7.27;;;13.90;99.90;;;;;;4831993;29;20049;-78
2022/06/17 04:09:12;;;;;;;9.15;7.10;;;13.90;99.90;;;;;;4822677;29;20041;-78
2022/06/17 04:11:39;;;;;;;10.33;7.50;;;13.90;99.90;;;;;;4843014;29;20049;-78
2022/06/17 04:14:32;;;;;;;9.60;7.83;;;13.90;99.90;;;;;;4838964;29;20423;-79
2022/06/17 04:17:11;;;;;;;9.80;6.90;;;14.00;99.90;;;;;;4831053;29;20045;-78
2022/06/17 04:19:38;;;;;;;8.13;7.33;;;14.00;99.90;;;;;;4833598;29;20556;-78
2022/06/17 04:22:18;;;;;;;9.90;7.30;;;14.00;99.90;;;;;;4826224;29;20507;-79
2022/06/17 04:24:49;;;;;;;12.10;7.77;;;14.10;99.90;;;;;;4841444;29;20768;-79
2022/06/17 04:27:15;;;;;;;7.93;7.10;;;14.20;99.90;;;;;;4841169;29;20044;-79
2022/06/17 04:29:45;;;;;;;9.53;7.80;;;14.20;99.90;;;;;;4827879;29;20211;-79
2022/06/17 04:32:25;;;;;;;8.77;7.90;;;14.30;99.90;;;;;;4852556;29;20057;-78
2022/06/17 04:34:51;;;;;;;10.40;7.60;;;14.40;99.90;;;;;;4850312;29;20072;-79
2022/06/17 04:37:21;;;;;;;12.17;8.37;;;14.50;99.90;;;;;;4843843;29;20056;-79
2022/06/17 04:39:59;;;;;;;11.03;8.50;;;14.50;99.90;;;;;;4857100;29;20448;-79
2022/06/17 04:42:30;;;;;;;13.10;8.00;;;14.60;99.90;;;;;;4857146;29;20040;-79
2022/06/17 04:44:56;;;;;;;7.88;6.63;;;14.60;99.90;;;;;;4842351;29;20049;-79
2022/06/17 04:47:23;;;;;;;11.45;8.40;;;14.70;99.90;;;;;;4860547;29;20041;-79
2022/06/17 04:50:10;;;;;;;11.23;8.70;;;14.70;99.90;;;;;;4841351;29;20407;-79
2022/06/17 04:52:41;;;;;;;14.33;9.87;;;14.70;99.90;;;;;;4855800;29;20053;-79
2022/06/17 04:55:34;;;;;;;12.35;9.35;;;14.80;99.90;;;;;;4840739;29;20072;-79
2022/06/17 04:58:00;;;;;;;10.48;9.27;;;14.80;99.90;;;;;;4853676;29;20106;-79
2022/06/17 05:00:27;;;;;;;11.95;10.13;;;14.90;99.90;;;;;;4856758;29;20411;-79
2022/06/17 05:02:54;;;;;;;11.45;10.25;;;14.90;99.90;;;;;;4854977;29;20075;-79
2022/06/17 05:05:46;;;;;;;12.77;10.15;;;14.90;99.90;;;;;;4845056;29;20045;-80
2022/06/17 05:08:30;;;;;;;11.77;10.25;;;15.00;99.90;;;;;;4852163;29;20059;-79
2022/06/17 05:11:20;;;;;;;13.55;10.60;;;15.00;99.90;;;;;;4844197;29;20491;-79
2022/06/17 05:13:55;;;;;;;17.50;11.68;;;15.00;99.90;;;;;;4851721;29;20077;-78
2022/06/17 05:16:22;;;;;;;13.40;10.70;;;15.00;99.90;;;;;;4840217;29;20737;-79
2022/06/17 05:18:49;;;;;;;12.95;11.20;;;15.00;99.90;;;;;;4843538;29;20664;-79
2022/06/17 05:21:23;;;;;;;15.50;10.77;;;15.10;99.90;;;;;;4846400;29;20045;-80
2022/06/17 05:23:53;;;;;;;12.82;11.15;;;15.20;99.90;;;;;;4854437;29;20060;-79
2022/06/17 05:26:19;;;;;;;14.40;10.98;;;15.20;99.90;;;;;;4852526;29;20085;-79
2022/06/17 05:28:46;;;;;;;14.88;11.95;;;15.30;99.90;;;;;;4854244;29;20053;-78
2022/06/17 05:31:18;;;;;;;13.00;11.52;;;15.40;99.90;;;;;;4842384;29;20474;-79
2022/06/17 05:33:46;;;;;;;15.30;12.30;;;15.40;99.90;;;;;;4842469;29;20100;-79
2022/06/17 05:36:11;;;;;;;17.90;11.68;;;15.50;99.90;;;;;;4858823;29;20519;-79
2022/06/17 05:38:37;;;;;;;14.38;11.68;;;15.50;99.90;;;;;;4846961;29;20129;-79
2022/06/17 05:41:05;;;;;;;16.83;11.75;;;15.70;99.90;;;;;;4855437;29;20049;-79
2022/06/17 05:43:31;;;;;;;13.40;11.60;;;15.70;99.90;;;;;;4863427;29;20123;-79
2022/06/17 05:45:57;;;;;;;16.55;12.68;;;15.70;99.90;;;;;;4842296;29;20132;-80
2022/06/17 05:48:22;;;;;;;16.92;12.40;;;15.80;99.90;;;;;;4840843;29;20594;-80
2022/06/17 05:50:49;;;;;;;13.10;11.60;;;15.80;99.90;;;;;;4840442;29;20080;-80
2022/06/17 05:53:14;;;;;;;14.07;11.20;;;15.80;99.90;;;;;;4853358;29;20047;-79
2022/06/17 05:55:40;;;;;;;15.00;12.57;;;15.90;99.90;;;;;;4855424;29;20500;-80
2022/06/17 05:58:06;;;;;;;15.75;11.32;;;15.90;99.90;;;;;;4837667;29;20052;-79
2022/06/17 06:00:33;;;;;;;17.30;11.27;;;16.00;99.90;;;;;;4844389;29;20052;-79
2022/06/17 06:03:01;;;;;;;16.42;11.55;;;16.00;99.90;;;;;;4854452;29;20048;-79
2022/06/17 06:05:31;;;;;;;15.13;11.55;;;16.00;99.90;;;;;;4840748;29;20088;-79
2022/06/17 06:07:57;;;;;;;16.50;11.77;;;16.10;99.90;;;;;;4854054;29;20045;-79
2022/06/17 06:10:23;;;;;;;16.23;11.60;;;16.10;99.90;;;;;;4857244;29;20471;-80
2022/06/17 06:13:03;;;;;;;13.52;11.32;;;16.20;99.90;;;;;;4857239;29;20045;-79
2022/06/17 06:15:44;;;;;;;18.73;12.27;;;16.20;99.90;;;;;;4852328;29;20128;-79
2022/06/17 06:18:12;;;;;;;15.25;11.63;;;16.30;99.90;;;;;;4842300;29;20045;-79
2022/06/17 06:20:38;;;;;;;15.60;12.63;;;16.30;99.90;;;;;;4852642;29;20041;-79
2022/06/17 06:23:04;;;;;;;14.05;12.45;;;16.40;99.90;;;;;;4839786;29;20068;-78
2022/06/17 06:25:31;;;;;;;18.05;12.90;;;16.40;99.90;;;;;;4861041;29;20037;-79
2022/06/17 06:27:57;;;;;;;18.02;13.27;;;16.50;99.90;;;;;;4857035;29;20088;-78
2022/06/17 06:30:26;;;;;;;17.05;12.75;;;16.60;99.90;;;;;;4877105;29;20044;-79
2022/06/17 06:32:54;;;;;;;15.52;12.85;;;16.50;99.90;;;;;;4861696;29;20049;-79
2022/06/17 06:35:23;;;;;;;16.95;12.25;;;16.60;99.90;;;;;;4871578;29;20080;-79
2022/06/17 06:37:50;;;;;;;16.83;12.85;;;16.60;99.90;;;;;;4859010;29;20097;-79
2022/06/17 06:40:16;;;;;;;15.90;12.63;;;16.70;99.90;;;;;;4854132;29;20093;-79
2022/06/17 06:42:42;;;;;;;17.70;13.30;;;16.70;99.90;;;;;;4850097;29;20443;-79
2022/06/17 06:45:13;;;;;;;15.68;12.35;;;16.80;99.90;;;;;;4849906;29;20059;-79
2022/06/17 06:47:41;;;;;;;15.95;12.63;;;16.80;99.90;;;;;;4860225;29;20053;-79
2022/06/17 06:50:10;;;;;;;17.58;11.63;;;16.90;99.90;;;;;;4856911;29;20076;-79
2022/06/17 06:52:35;;;;;;;13.35;11.75;;;17.00;99.90;;;;;;4854748;29;20053;-79
2022/06/17 06:55:01;;;;;;;16.15;12.85;;;17.00;99.90;;;;;;4852271;29;20449;-79
2022/06/17 06:57:27;;;;;;;18.17;12.38;;;17.10;99.90;;;;;;4854169;29;20041;-79
2022/06/17 06:59:52;;;;;;;14.40;11.68;;;17.20;99.90;;;;;;4853977;29;20050;-79
2022/06/17 07:02:18;;;;;;;18.23;12.60;;;17.30;99.90;;;;;;4852284;29;20120;-78
2022/06/17 07:04:44;;;;;;;14.73;12.18;;;17.40;99.90;;;;;;4856813;29;20048;-79
2022/06/17 07:07:11;;;;;;;13.73;11.65;;;17.50;99.90;;;;;;4852896;29;20053;-79
2022/06/17 07:09:36;;;;;;;13.43;12.00;;;17.60;99.90;;;;;;4853248;29;20052;-80
2022/06/17 07:12:02;;;;;;;14.15;11.35;;;17.80;99.90;;;;;;4863455;29;20391;-79
2022/06/17 07:14:28;;;;;;;15.63;11.13;;;17.90;99.90;;;;;;4862808;29;20143;-78
2022/06/17 07:16:54;;;;;;;17.27;11.15;;;18.00;99.90;;;;;;4864782;29;20561;-78
2022/06/17 07:19:19;;;;;;;13.90;10.20;;;18.10;99.90;;;;;;4855494;29;20041;-78
2022/06/17 07:21:45;;;;;;;13.65;10.88;;;18.20;99.90;;;;;;4870108;29;20096;-79
2022/06/17 07:24:13;;;;;;;12.50;10.60;;;18.30;99.90;;;;;;4845583;29;20056;-79
2022/06/17 07:26:39;;;;;;;11.82;10.23;;;18.50;99.90;;;;;;4861172;29;20052;-79
2022/06/17 07:29:04;;;;;;;13.77;10.77;;;18.60;99.90;;;;;;4868781;29;20052;-79
2022/06/17 07:31:30;;;;;;;14.10;9.63;;;18.80;99.90;;;;;;4869543;29;20040;-79
2022/06/17 07:33:57;;;;;;;12.90;10.25;;;19.00;99.90;;;;;;4836095;29;20056;-80
2022/06/17 07:41:57;;;;;;;12.38;9.73;;;19.50;99.90;;;;;;4853726;29;20044;-79
2022/06/17 07:44:23;;;;;;;14.25;8.98;;;19.50;99.90;;;;;;4857008;29;20061;-78
2022/06/17 07:46:49;;;;;;;11.43;9.60;;;19.60;99.90;;;;;;4859977;29;20068;-79
2022/06/17 07:49:14;;;;;;;11.02;9.10;;;19.60;99.90;;;;;;4860752;29;20105;-82
2022/06/17 07:51:40;;;;;;;13.90;9.63;;;19.70;99.90;;;;;;4846784;29;20056;-79
2022/06/17 07:54:06;;;;;;;14.50;10.70;;;19.80;99.90;;;;;;4820176;29;20041;-80
2022/06/17 07:56:32;;;;;;;12.73;9.60;;;19.90;99.90;;;;;;4834193;29;20038;-80
2022/06/17 07:58:58;;;;;;;10.25;8.95;;;20.00;99.90;;;;;;4836621;29;20358;-78
2022/06/17 08:01:24;;;;;;;13.45;9.77;;;20.30;99.90;;;;;;4851432;29;20045;-79
2022/06/17 08:03:49;;;;;;;10.27;9.15;;;20.60;99.90;;;;;;4838838;29;20695;-79
2022/06/17 08:06:16;;;;;;;15.10;8.65;;;20.80;99.90;;;;;;4842038;29;20056;-80
2022/06/17 08:08:43;;;;;;;11.38;9.05;;;21.00;99.90;;;;;;4860168;29;20547;-79
2022/06/17 08:11:10;;;;;;;14.10;9.02;;;21.20;99.90;;;;;;4848306;29;20045;-80
2022/06/17 08:13:36;;;;;;;13.20;7.85;;;21.30;99.90;;;;;;4844813;29;20456;-79
2022/06/17 08:16:05;;;;;;;9.88;8.00;;;21.30;99.90;;;;;;4851526;29;20044;-81
2022/06/17 08:18:32;;;;;;;9.05;7.60;;;21.30;99.90;;;;;;4848859;29;20084;-78
2022/06/17 08:20:57;;;;;;;12.23;8.38;;;21.30;99.90;;;;;;4849077;29;20123;-79
2022/06/17 08:23:24;;;;;;;9.13;8.05;;;21.20;99.90;;;;;;4819014;29;20106;-81
2022/06/17 08:25:50;;;;;;;8.55;7.18;;;21.20;99.90;;;;;;4840355;29;20050;-79
2022/06/17 08:28:18;;;;;;;8.95;7.35;;;21.20;99.90;;;;;;4846505;29;20049;-80
2022/06/17 08:30:55;;;;;;;10.15;6.90;;;21.20;99.90;;;;;;4848507;29;20050;-79
2022/06/17 08:33:29;;;;;;;8.75;7.07;;;21.20;99.90;;;;;;4841795;29;20064;-79
2022/06/17 08:35:59;;;;;;;11.63;7.00;;;21.30;99.90;;;;;;4831925;29;20074;-79
2022/06/17 08:38:28;;;;;;;8.45;6.72;;;21.30;99.90;;;;;;4843694;29;20384;-79
2022/06/17 08:40:54;;;;;;;7.38;6.50;;;21.40;99.90;;;;;;4831556;29;20369;-81
2022/06/17 08:43:27;;;;;;;8.77;6.63;;;21.50;99.90;;;;;;4826775;29;20061;-80
2022/06/17 08:46:13;;;;;;;11.30;7.00;;;21.90;99.90;;;;;;4849251;29;20133;-81
2022/06/17 08:49:00;;;;;;;9.73;7.03;;;22.40;99.90;;;;;;4833549;29;20352;-80
2022/06/17 08:52:04;;;;;;;9.98;7.50;;;22.60;99.90;;;;;;4834694;29;20037;-80
2022/06/17 08:54:57;;;;;;;7.13;6.30;;;22.70;99.90;;;;;;4831946;29;20057;-81
2022/06/17 08:57:51;;;;;;;11.48;6.10;;;22.80;99.90;;;;;;4834273;29;20185;-79
2022/06/17 09:00:34;;;;;;;8.52;6.15;;;22.70;99.90;;;;;;4834768;29;20045;-81
2022/06/17 09:03:13;;;;;;;10.07;6.63;;;22.70;99.90;;;;;;4870314;29;20037;-81
2022/06/17 09:05:51;;;;;;;8.05;6.60;;;22.60;99.90;;;;;;4846733;29;20102;-79
2022/06/17 09:08:41;;;;;;;7.32;6.30;;;22.40;99.80;;;;;;4864485;29;20065;-79
2022/06/17 09:11:14;;;;;;;11.02;6.20;;;22.40;98.70;;;;;;4839196;29;20052;-80
2022/06/17 09:14:05;;;;;;;8.35;6.20;;;22.30;99.90;;;;;;4853988;29;20044;-79
2022/06/17 09:16:39;;;;;;;8.95;6.43;;;22.20;98.80;;;;;;4849806;29;20051;-80
2022/06/17 09:19:08;;;;;;;9.93;6.53;;;22.10;98.20;;;;;;4848648;29;20037;-80
2022/06/17 09:21:46;;;;;;;10.38;7.20;;;22.10;99.90;;;;;;4845743;29;20583;-79
2022/06/17 09:24:36;;;;;;;8.63;6.50;;;22.10;99.00;;;;;;4840511;29;20045;-79
2022/06/17 09:27:05;;;;;;;8.43;6.32;;;22.30;99.90;;;;;;4862837;29;20059;-79
2022/06/17 09:29:37;;;;;;;8.40;6.32;;;22.30;99.90;;;;;;4868714;29;20041;-80
2022/06/17 09:32:25;;;;;;;10.40;5.93;;;22.40;99.90;;;;;;4868018;29;20056;-80
2022/06/17 09:35:04;;;;;;;7.93;6.72;;;22.40;99.90;;;;;;4863196;29;20043;-79
2022/06/17 09:37:57;;;;;;;9.07;7.50;;;22.40;99.90;;;;;;4862625;29;20048;-79
2022/06/17 09:40:37;;;;;;;8.07;6.72;;;22.30;99.90;;;;;;4848105;29;20040;-82
2022/06/17 09:43:05;;;;;;;11.77;7.18;;;22.30;99.90;;;;;;4857819;29;20073;-79
2022/06/17 09:45:47;;;;;;;9.20;6.65;;;22.40;99.90;;;;;;4858046;29;20053;-79
2022/06/17 09:48:25;;;;;;;9.57;6.95;;;22.40;99.90;;;;;;4853872;29;20057;-79
2022/06/17 09:51:01;;;;;;;9.90;6.40;;;22.50;99.90;;;;;;4870241;29;20091;-79
2022/06/17 09:53:41;;;;;;;8.25;5.90;;;22.50;99.90;;;;;;4866445;29;20044;-78
2022/06/17 09:56:14;;;;;;;12.23;6.00;;;22.60;98.90;;;;;;4851998;29;20411;-78
2022/06/17 09:59:03;;;;;;;7.75;5.45;;;22.70;99.80;;;;;;4842749;29;20433;-80
2022/06/17 10:01:29;;;;;;;10.02;5.75;;;22.90;99.50;;;;;;4861574;29;20045;-79
2022/06/17 10:03:55;;;;;;;6.90;5.05;;;23.00;99.80;;;;;;4854714;29;20556;-80
2022/06/17 10:06:40;;;;;;;7.25;6.10;;;23.10;97.20;;;;;;4843550;29;20040;-80
2022/06/17 10:09:31;;;;;;;8.73;5.47;;;23.10;95.70;;;;;;4857151;29;20056;-80
2022/06/17 10:12:14;;;;;;;8.48;5.07;;;23.20;95.10;;;;;;4846682;29;20133;-80
2022/06/17 10:15:08;;;;;;;8.15;6.18;;;23.20;98.90;;;;;;4862952;29;20491;-80
2022/06/17 10:20:58;;;;;;;11.00;5.15;;;23.10;90.20;;;;;;4870320;29;20073;-81
2022/06/17 10:23:43;;;;;;;8.68;4.80;;;23.00;91.20;;;;;;4854775;29;20760;-79
2022/06/17 10:26:32;;;;;;;7.75;5.32;;;23.00;92.10;;;;;;4861126;29;20135;-79
2022/06/17 10:29:00;;;;;;;6.38;5.00;;;23.00;93.10;;;;;;4817614;29;20067;-81
2022/06/17 10:31:44;;;;;;;8.70;5.35;;;23.00;92.70;;;;;;4853491;29;20131;-79
2022/06/17 10:34:13;;;;;;;8.20;4.97;;;23.00;90.00;;;;;;4866855;29;20188;-81
2022/06/17 10:36:40;;;;;;;8.05;5.43;;;23.10;92.40;;;;;;4861277;29;20067;-80
2022/06/17 10:39:10;;;;;;;7.40;5.30;;;23.10;92.30;;;;;;4856632;29;20426;-78
2022/06/17 10:41:36;;;;;;;7.30;4.78;;;23.10;91.40;;;;;;4853792;29;20060;-81
2022/06/17 10:44:03;;;;;;;8.27;5.00;;;23.00;91.90;;;;;;4842186;29;20060;-79
2022/06/17 10:46:32;;;;;;;6.82;5.20;;;23.00;92.40;;;;;;4838089;29;20045;-80
2022/06/17 10:49:13;;;;;;;6.72;5.50;;;23.00;93.40;;;;;;4858835;29;20049;-80
2022/06/17 10:51:39;;;;;;;8.23;5.82;;;22.90;91.30;;;;;;4846735;29;20155;-79
2022/06/17 10:54:17;;;;;;;6.70;5.28;;;22.90;92.10;;;;;;4857130;29;20403;-80
2022/06/17 10:57:03;;;;;;;10.20;5.70;;;22.90;91.20;;;;;;4866321;29;20403;-81
2022/06/17 10:59:35;;;;;;;8.48;6.20;;;23.00;91.80;;;;;;4856843;29;20051;-82
2022/06/17 11:02:00;;;;;;;7.80;6.20;;;23.00;91.70;;;;;;4876563;29;20103;-80
2022/06/17 11:04:28;;;;;;;9.10;6.05;;;23.10;91.80;;;;;;4841315;29;20542;-81
2022/06/17 11:07:05;;;;;;;8.07;5.57;;;23.20;91.90;;;;;;4851204;29;20037;-81
2022/06/17 11:09:48;;;;;;;8.70;6.15;;;23.40;93.10;;;;;;4858689;29;20037;-80
2022/06/17 11:12:30;;;;;;;11.02;6.65;;;23.60;91.90;;;;;;4849494;29;20053;-80
2022/06/17 11:15:05;;;;;;;7.57;6.10;;;23.70;91.20;;;;;;4885536;29;20049;-79
2022/06/17 11:17:43;;;;;;;10.80;6.45;;;23.90;91.10;;;;;;4867848;29;20415;-80
2022/06/17 11:20:16;;;;;;;8.82;5.50;;;24.00;86.10;;;;;;4873160;29;20402;-79
2022/06/17 11:22:52;;;;;;;10.57;5.57;;;24.30;92.70;;;;;;4860065;29;20090;-80
2022/06/17 11:25:34;;;;;;;9.30;5.70;;;24.40;91.10;;;;;;4861325;29;20060;-82
2022/06/17 11:28:12;;;;;;;9.60;6.18;;;24.60;89.00;;;;;;4840302;29;20053;-80
2022/06/17 11:30:49;;;;;;;5.78;4.75;;;24.50;85.00;;;;;;4857371;29;20136;-80
2022/06/17 11:33:24;;;;;;;7.25;5.72;;;24.40;85.20;;;;;;4866908;29;20048;-80
2022/06/17 11:36:09;;;;;;;5.60;4.72;;;24.50;84.60;;;;;;4866145;29;20049;-80
2022/06/17 11:38:35;;;;;;;10.00;4.82;;;24.40;85.20;;;;;;4851708;29;20567;-80
2022/06/17 11:41:01;;;;;;;6.50;4.57;;;24.40;84.10;;;;;;4841667;29;20567;-80
2022/06/17 11:43:31;;;;;;;8.00;4.55;;;24.30;84.00;;;;;;4844460;29;20052;-80
2022/06/17 11:46:04;;;;;;;7.50;5.30;;;24.30;84.60;;;;;;4854523;29;20049;-81
2022/06/17 11:48:30;;;;;;;6.70;4.65;;;24.30;80.60;;;;;;4866055;29;20116;-80
2022/06/17 11:51:13;;;;;;;8.02;4.57;;;24.30;80.20;;;;;;4862217;29;20037;-80
2022/06/17 11:54:11;;;;;;;7.55;4.75;;;24.30;78.90;;;;;;4851375;29;20044;-80
2022/06/17 11:56:39;;;;;;;8.48;4.88;;;24.40;80.30;;;;;;4853888;29;20400;-81
2022/06/17 11:59:16;;;;;;;7.47;4.95;;;24.80;82.10;;;;;;4848485;29;20045;-81
2022/06/17 12:02:07;;;;;;;5.22;4.57;;;25.30;79.20;;;;;;4869091;29;20529;-80
2022/06/17 12:04:55;;;;;;;7.63;4.80;;;25.60;76.80;;;;;;4868052;29;20060;-80
2022/06/17 12:07:52;;;;;;;5.50;4.38;;;25.80;75.60;;;;;;4850593;29;20067;-80
2022/06/17 12:10:39;;;;;;;6.57;5.18;;;25.70;68.50;;;;;;4860741;29;20433;-80
2022/06/17 12:13:30;;;;;;;7.40;5.13;;;25.60;71.20;;;;;;4844967;29;20073;-80
2022/06/17 12:16:13;;;;;;;7.45;4.55;;;25.60;70.80;;;;;;4854096;29;20041;-81
2022/06/17 12:18:52;;;;;;;6.07;4.65;;;25.60;71.50;;;;;;4837203;29;20044;-80
2022/06/17 12:21:42;;;;;;;6.40;4.63;;;25.70;72.70;;;;;;4860917;29;20399;-80
2022/06/17 12:24:23;;;;;;;7.18;4.40;;;25.90;69.70;;;;;;4871972;29;20063;-81
2022/06/17 12:27:01;;;;;;;5.05;4.25;;;26.00;73.20;;;;;;4861833;29;20053;-79
2022/06/17 12:29:42;;;;;;;6.53;4.55;;;26.10;69.10;;;;;;4867473;29;20497;-81
2022/06/17 12:32:22;;;;;;;6.40;4.53;;;26.10;70.10;;;;;;4863193;29;20049;-80
2022/06/17 12:35:14;;;;;;;9.40;4.75;;;26.00;66.50;;;;;;4853061;29;20583;-80
2022/06/17 12:37:47;;;;;;;8.70;5.07;;;26.10;67.70;;;;;;4870355;29;20072;-80
2022/06/17 12:40:33;;;;;;;4.68;4.13;;;26.10;68.80;;;;;;4862891;29;20045;-78
2022/06/17 12:43:12;;;;;;;7.60;4.38;;;26.20;67.60;;;;;;4857365;29;20049;-80
2022/06/17 12:46:03;;;;;;;7.03;4.35;;;26.40;67.00;;;;;;4866099;29;20060;-81
2022/06/17 12:48:54;;;;;;;8.13;4.40;;;26.60;67.70;;;;;;4859505;29;20072;-81
2022/06/17 12:54:48;;;;;;;5.95;4.35;;;26.80;66.30;;;;;;4852612;29;20066;-81
2022/06/17 12:57:29;;;;;;;6.78;4.10;;;27.00;61.20;;;;;;4858028;29;20064;-80
2022/06/17 13:00:04;;;;;;;6.10;4.45;;;27.10;62.60;;;;;;4843895;29;20069;-81
2022/06/17 13:02:53;;;;;;;8.68;4.32;;;27.10;61.70;;;;;;4854350;29;20147;-80
2022/06/17 13:05:34;;;;;;;5.85;4.05;;;27.20;59.80;;;;;;4864293;29;20688;-82
2022/06/17 13:08:19;;;;;;;6.13;4.63;;;27.20;62.20;;;;;;4847706;29;20094;-81
2022/06/17 13:11:04;;;;;;;4.68;4.15;;;27.30;62.80;;;;;;4871143;29;20048;-79
2022/06/17 13:13:32;;;;;;;5.22;4.38;;;27.30;60.20;;;;;;4876714;29;20049;-80
2022/06/17 13:16:17;;;;;;;6.85;4.63;;;27.30;62.50;;;;;;4875642;29;20049;-80
2022/06/17 13:18:59;;;;;;;8.35;4.35;;;27.10;59.00;;;;;;4864414;29;20041;-81
2022/06/17 13:21:36;;;;;;;9.27;4.10;;;27.10;62.60;;;;;;4851991;29;20052;-80
2022/06/17 13:24:34;;;;;;;5.30;4.10;;;27.00;60.80;;;;;;4872176;29;20144;-81